Time;durP1;ratioP1;P1;durP2;ratioP2;P2;SDS_P1;SDS_P2;PMS_P1;PMS_P2;Temp;Humidity;BMP_temperature;BMP_pressure;BME280_temperature;BME280_humidity;BME280_pressure;Samples;Min_cycle;Max_cycle;Signal;HPM_P1;HPM_P2
2023/05/03 00:00:38;;;;;;;;;;;;;;;11.63;100.00;99997.94;5015004;28;19952;-39
2023/05/03 00:03:05;;;;;;;;;;;;;;;11.84;100.00;99994.06;5021339;28;19925;-39
2023/05/03 00:05:31;;;;;;;;;;;;;;;11.73;100.00;99989.13;5017984;28;19943;-39
2023/05/03 00:07:56;;;;;;;;;;;;;;;11.48;100.00;99993.09;5021714;28;20584;-39
2023/05/03 00:10:21;;;;;;;;;;;;;;;10.81;100.00;100039.84;5018111;28;19917;-39
2023/05/03 00:12:48;;;;;;;;;;;;;;;10.27;100.00;100065.50;5016538;28;20035;-39
2023/05/03 00:15:13;;;;;;;;;;;;;;;9.92;100.00;100071.97;5017920;28;20374;-39
2023/05/03 00:17:38;;;;;;;;;;;;;;;10.05;100.00;100081.22;5018858;28;19932;-39
2023/05/03 00:20:04;;;;;;;;;;;;;;;10.12;100.00;100070.84;5019242;28;20388;-39
2023/05/03 00:22:29;;;;;;;;;;;;;;;10.40;100.00;100071.34;5013689;28;19924;-39
2023/05/03 00:24:55;;;;;;;;;;;;;;;10.60;100.00;100063.34;5017434;28;19932;-39
2023/05/03 00:27:20;;;;;;;;;;;;;;;10.38;100.00;100062.81;5022464;28;20293;-39
2023/05/03 00:29:46;;;;;;;;;;;;;;;10.51;100.00;100053.19;5019229;28;20932;-39
2023/05/03 00:32:11;;;;;;;;;;;;;;;10.48;100.00;100042.94;5014400;28;19935;-39
2023/05/03 00:34:36;;;;;;;;;;;;;;;10.53;100.00;100041.13;5020487;28;19921;-39
2023/05/03 00:37:02;;;;;;;;;;;;;;;10.54;100.00;100024.81;5014738;28;19971;-39
2023/05/03 00:39:30;;;;;;;;;;;;;;;10.52;100.00;100034.28;5015662;28;19923;-39
2023/05/03 00:41:59;;;;;;;;;;;;;;;10.33;100.00;100039.72;5014427;28;19967;-39
2023/05/03 00:44:24;;;;;;;;;;;;;;;9.92;100.00;100060.81;5012485;28;19917;-39
2023/05/03 00:46:50;;;;;;;;;;;;;;;9.96;100.00;100070.19;5020194;28;19925;-39
2023/05/03 00:49:15;;;;;;;;;;;;;;;9.97;100.00;100072.75;5017457;28;19956;-39
2023/05/03 00:51:40;;;;;;;;;;;;;;;10.43;100.00;100049.00;5019055;28;20517;-39
2023/05/03 00:54:06;;;;;;;;;;;;;;;10.12;100.00;100045.09;5014026;28;20349;-39
2023/05/03 00:56:31;;;;;;;;;;;;;;;10.19;100.00;100042.41;5018984;28;19932;-39
2023/05/03 00:58:56;;;;;;;;;;;;;;;10.52;100.00;100013.69;5018466;28;20008;-39
2023/05/03 01:01:21;;;;;;;;;;;;;;;10.54;100.00;100001.63;5019002;28;20024;-39
2023/05/03 01:03:47;;;;;;;;;;;;;;;10.45;100.00;100016.34;5020335;28;19974;-39
2023/05/03 01:06:14;;;;;;;;;;;;;;;10.62;100.00;99999.78;5016746;28;19929;-39
2023/05/03 01:08:43;;;;;;;;;;;;;;;10.64;100.00;99973.09;5019499;28;20012;-39
2023/05/03 01:11:47;;;;;;;;;;;;;;;10.51;100.00;99981.06;5017407;28;20032;-39
2023/05/03 01:14:15;;;;;;;;;;;;;;;10.20;100.00;99991.81;4977158;28;20049;-39
2023/05/03 01:16:46;;;;;;;;;;;;;;;10.24;100.00;100003.75;4978597;28;19933;-39
2023/05/03 01:19:18;;;;;;;;;;;;;;;10.83;100.00;99976.25;5001113;28;19925;-39
2023/05/03 01:21:45;;;;;;;;;;;;;;;11.14;100.00;99957.63;5018613;28;19924;-39
2023/05/03 01:24:13;;;;;;;;;;;;;;;11.02;100.00;99952.72;5016033;28;19952;-39
2023/05/03 01:26:38;;;;;;;;;;;;;;;11.02;100.00;99963.88;5018706;28;20011;-39
2023/05/03 01:29:03;;;;;;;;;;;;;;;11.23;100.00;99957.44;5017737;28;20042;-39
2023/05/03 01:31:34;;;;;;;;;;;;;;;11.23;100.00;99946.28;5018367;28;19999;-39
2023/05/03 01:34:18;;;;;;;;;;;;;;;11.13;100.00;99966.25;5016852;28;20756;-39
2023/05/03 01:36:43;;;;;;;;;;;;;;;11.10;100.00;99966.28;5018098;28;20007;-39
2023/05/03 01:39:29;;;;;;;;;;;;;;;11.04;100.00;99966.44;5014809;28;20368;-39
2023/05/03 01:41:54;;;;;;;;;;;;;;;11.10;100.00;99961.97;4996938;28;19925;-39
2023/05/03 01:44:19;;;;;;;;;;;;;;;11.19;100.00;99955.81;5014168;28;19925;-39
2023/05/03 01:46:45;;;;;;;;;;;;;;;10.94;100.00;99967.47;5000559;28;19921;-39
2023/05/03 01:49:10;;;;;;;;;;;;;;;10.73;100.00;99976.41;5016235;28;20500;-39
2023/05/03 01:51:35;;;;;;;;;;;;;;;10.43;100.00;99988.91;5017690;28;20939;-39
2023/05/03 01:54:00;;;;;;;;;;;;;;;10.31;100.00;100002.84;5017044;28;19928;-39
2023/05/03 01:56:26;;;;;;;;;;;;;;;10.27;100.00;100004.56;5017473;28;19921;-39
2023/05/03 01:58:51;;;;;;;;;;;;;;;10.53;100.00;99997.34;5018186;28;19921;-39
2023/05/03 02:01:16;;;;;;;;;;;;;;;10.61;100.00;99982.63;4998446;28;19971;-39
2023/05/03 02:03:41;;;;;;;;;;;;;;;10.46;100.00;99994.00;5021439;28;20291;-42
2023/05/03 02:06:07;;;;;;;;;;;;;;;10.79;100.00;99982.31;5019066;28;20074;-39
2023/05/03 02:08:32;;;;;;;;;;;;;;;10.31;100.00;99999.38;5017760;28;19920;-39
2023/05/03 02:10:57;;;;;;;;;;;;;;;10.32;100.00;100017.41;5020453;28;19982;-39
2023/05/03 02:13:22;;;;;;;;;;;;;;;10.45;100.00;100008.63;5017062;28;19971;-40
2023/05/03 02:15:48;;;;;;;;;;;;;;;10.29;100.00;100012.31;5017376;28;19928;-39
2023/05/03 02:18:15;;;;;;;;;;;;;;;10.19;100.00;100031.28;5018314;28;20012;-39
2023/05/03 02:20:43;;;;;;;;;;;;;;;10.00;100.00;100035.84;5017770;28;19917;-39
2023/05/03 02:23:08;;;;;;;;;;;;;;;9.38;100.00;100061.41;5015916;28;19967;-39
2023/05/03 02:25:34;;;;;;;;;;;;;;;9.57;100.00;100070.63;5020897;28;19925;-39
2023/05/03 02:27:59;;;;;;;;;;;;;;;9.55;100.00;100080.06;5024377;28;19978;-39
2023/05/03 02:30:25;;;;;;;;;;;;;;;9.93;100.00;100065.94;5025638;28;19921;-39
2023/05/03 02:32:50;;;;;;;;;;;;;;;8.86;100.00;100097.84;5016949;28;19931;-39
2023/05/03 02:35:15;;;;;;;;;;;;;;;8.74;100.00;100098.78;5017424;28;19924;-39
2023/05/03 02:37:41;;;;;;;;;;;;;;;9.67;100.00;100084.25;5017153;28;19917;-39
2023/05/03 02:40:08;;;;;;;;;;;;;;;9.32;100.00;100084.59;5017275;28;19921;-39
2023/05/03 02:42:33;;;;;;;;;;;;;;;9.14;100.00;100101.03;5019663;28;19921;-39
2023/05/03 02:44:58;;;;;;;;;;;;;;;9.70;100.00;100085.94;5016712;28;20630;-39
2023/05/03 02:47:23;;;;;;;;;;;;;;;9.91;100.00;100067.66;5016969;28;20659;-39
2023/05/03 02:49:49;;;;;;;;;;;;;;;9.14;100.00;100083.06;5016681;28;20192;-39
2023/05/03 02:52:14;;;;;;;;;;;;;;;9.15;100.00;100095.06;5017275;28;19920;-39
2023/05/03 02:54:39;;;;;;;;;;;;;;;9.16;100.00;100100.16;5012986;28;19921;-39
2023/05/03 02:57:04;;;;;;;;;;;;;;;9.32;100.00;100092.31;5016536;28;20078;-39
2023/05/03 02:59:31;;;;;;;;;;;;;;;9.32;100.00;100103.44;5017089;28;19917;-39
2023/05/03 03:01:56;;;;;;;;;;;;;;;9.23;100.00;100106.09;5014704;28;20008;-39
2023/05/03 03:04:22;;;;;;;;;;;;;;;9.77;100.00;100069.56;5015878;28;20007;-39
2023/05/03 03:06:47;;;;;;;;;;;;;;;9.49;100.00;100064.72;5016891;28;20008;-39
2023/05/03 03:09:12;;;;;;;;;;;;;;;9.38;100.00;100072.53;5016063;28;19917;-39
2023/05/03 03:11:38;;;;;;;;;;;;;;;8.97;100.00;100080.63;5017167;28;19924;-39
2023/05/03 03:14:03;;;;;;;;;;;;;;;8.95;100.00;100095.19;5014808;28;20379;-39
2023/05/03 03:16:28;;;;;;;;;;;;;;;8.94;100.00;100090.91;5017067;28;20012;-39
2023/05/03 03:18:54;;;;;;;;;;;;;;;8.50;100.00;100099.78;5015927;28;20028;-39
2023/05/03 03:21:19;;;;;;;;;;;;;;;8.62;100.00;100115.13;5016319;28;20044;-39
2023/05/03 03:23:44;;;;;;;;;;;;;;;8.59;100.00;100125.41;5015815;28;19935;-39
2023/05/03 03:26:09;;;;;;;;;;;;;;;8.70;100.00;100115.91;5015458;28;20026;-38
2023/05/03 03:28:35;;;;;;;;;;;;;;;8.92;100.00;100092.66;5021074;28;19920;-39
2023/05/03 03:31:00;;;;;;;;;;;;;;;8.85;100.00;100093.56;5023682;28;19925;-39
2023/05/03 03:33:25;;;;;;;;;;;;;;;9.32;100.00;100071.75;5016298;28;20922;-39
2023/05/03 03:35:50;;;;;;;;;;;;;;;9.14;100.00;100060.75;5023456;28;20395;-39
2023/05/03 03:38:15;;;;;;;;;;;;;;;9.10;100.00;100076.22;5017094;28;19921;-39
2023/05/03 03:40:41;;;;;;;;;;;;;;;9.20;100.00;100071.00;5017470;28;19920;-39
2023/05/03 03:43:06;;;;;;;;;;;;;;;8.85;100.00;100070.44;5014191;28;20116;-39
2023/05/03 03:45:31;;;;;;;;;;;;;;;8.38;100.00;100106.66;5015629;28;20765;-39
2023/05/03 03:47:56;;;;;;;;;;;;;;;8.55;100.00;100103.16;5015454;28;20973;-39
2023/05/03 03:50:22;;;;;;;;;;;;;;;8.83;100.00;100095.31;5015853;28;20007;-39
2023/05/03 03:52:47;;;;;;;;;;;;;;;8.68;100.00;100104.81;5012054;28;19921;-39
2023/05/03 03:55:12;;;;;;;;;;;;;;;8.65;100.00;100111.69;5020404;28;19925;-39
2023/05/03 03:57:38;;;;;;;;;;;;;;;8.66;100.00;100111.66;5015652;28;19913;-39
2023/05/03 04:00:08;;;;;;;;;;;;;;;8.68;100.00;100107.38;5015349;28;20619;-39
2023/05/03 04:02:33;;;;;;;;;;;;;;;8.33;100.00;100118.66;5016863;28;19925;-39
2023/05/03 04:04:58;;;;;;;;;;;;;;;8.19;100.00;100125.59;5015247;28;20012;-39
2023/05/03 04:07:24;;;;;;;;;;;;;;;8.33;100.00;100122.97;5014985;28;20008;-39
2023/05/03 04:09:49;;;;;;;;;;;;;;;8.24;100.00;100123.84;5016190;28;19996;-39
2023/05/03 04:12:14;;;;;;;;;;;;;;;8.39;100.00;100128.03;5016106;28;20222;-39
2023/05/03 04:14:39;;;;;;;;;;;;;;;8.04;100.00;100141.88;5021475;28;19928;-39
2023/05/03 04:17:05;;;;;;;;;;;;;;;8.50;100.00;100134.00;5022446;28;19921;-39
2023/05/03 04:19:31;;;;;;;;;;;;;;;8.97;100.00;100119.16;5016163;28;19925;-39
2023/05/03 04:21:56;;;;;;;;;;;;;;;8.60;100.00;100116.84;5017001;28;19928;-39
2023/05/03 04:24:21;;;;;;;;;;;;;;;8.37;100.00;100125.50;5015288;28;19921;-39
2023/05/03 04:26:46;;;;;;;;;;;;;;;8.17;100.00;100127.31;5015169;28;20005;-39
2023/05/03 04:29:12;;;;;;;;;;;;;;;8.25;100.00;100140.09;5015426;28;19929;-39
2023/05/03 04:31:38;;;;;;;;;;;;;;;8.16;100.00;100126.47;5014572;28;19921;-39
2023/05/03 04:34:03;;;;;;;;;;;;;;;8.70;100.00;100117.66;5014863;28;19917;-39
2023/05/03 04:36:28;;;;;;;;;;;;;;;8.27;100.00;100128.97;5014871;28;19943;-39
2023/05/03 04:38:54;;;;;;;;;;;;;;;8.01;100.00;100117.97;5015150;28;19917;-39
2023/05/03 04:41:19;;;;;;;;;;;;;;;8.21;100.00;100130.69;5017207;28;19917;-39
2023/05/03 04:43:44;;;;;;;;;;;;;;;8.75;100.00;100121.88;5015208;28;19929;-39
2023/05/03 04:46:09;;;;;;;;;;;;;;;8.24;100.00;100128.97;5015238;28;20776;-39
2023/05/03 04:48:35;;;;;;;;;;;;;;;8.18;100.00;100140.09;5016164;28;21385;-39
2023/05/03 04:51:00;;;;;;;;;;;;;;;7.41;100.00;100154.84;5014925;28;20564;-39
2023/05/03 04:53:25;;;;;;;;;;;;;;;7.75;100.00;100154.78;5013506;28;19925;-39
2023/05/03 04:55:51;;;;;;;;;;;;;;;7.23;100.00;100170.19;5013936;28;19917;-39
2023/05/03 04:58:16;;;;;;;;;;;;;;;7.63;100.00;100172.75;5012010;28;19921;-41
2023/05/03 05:00:42;;;;;;;;;;;;;;;8.31;100.00;100174.28;5017216;28;20518;-40
2023/05/03 05:03:07;;;;;;;;;;;;;;;7.62;100.00;100171.91;5019910;28;20404;-40
2023/05/03 05:05:32;;;;;;;;;;;;;;;7.60;100.00;100175.34;5015990;28;19917;-40
2023/05/03 05:07:58;;;;;;;;;;;;;;;7.16;100.00;100179.59;5021270;28;20008;-39
2023/05/03 05:10:23;;;;;;;;;;;;;;;7.42;100.00;100184.72;5014397;28;20000;-39
2023/05/03 05:12:48;;;;;;;;;;;;;;;7.72;100.00;100183.84;5039701;28;19920;-39
2023/05/03 05:15:13;;;;;;;;;;;;;;;7.48;100.00;100188.97;5015107;28;20010;-39
2023/05/03 05:17:39;;;;;;;;;;;;;;;7.92;100.00;100188.09;5018379;28;19966;-39
2023/05/03 05:20:06;;;;;;;;;;;;;;;7.73;100.00;100192.38;5016690;28;19932;-39
2023/05/03 05:22:31;;;;;;;;;;;;;;;8.84;100.00;100204.88;5014857;28;20361;-39
2023/05/03 05:24:56;;;;;;;;;;;;;;;8.43;100.00;100205.94;5015226;28;20024;-39
2023/05/03 05:27:22;;;;;;;;;;;;;;;8.47;100.00;100199.94;5015531;28;19980;-39
2023/05/03 05:29:47;;;;;;;;;;;;;;;8.55;100.00;100205.88;5013574;28;19917;-39
2023/05/03 05:32:12;;;;;;;;;;;;;;;8.75;100.00;100206.63;5015715;28;19921;-39
2023/05/03 05:34:38;;;;;;;;;;;;;;;9.96;100.00;100210.00;5014848;28;19921;-39
2023/05/03 05:37:04;;;;;;;;;;;;;;;10.55;100.00;100196.50;5020900;28;20004;-39
2023/05/03 05:39:29;;;;;;;;;;;;;;;10.87;100.00;100175.44;5017021;28;19917;-39
2023/05/03 05:41:54;;;;;;;;;;;;;;;9.75;100.00;100164.75;5018021;28;19979;-39
2023/05/03 05:44:20;;;;;;;;;;;;;;;9.73;100.00;100157.91;5025974;28;19917;-39
2023/05/03 05:46:45;;;;;;;;;;;;;;;10.30;100.00;100159.91;5020603;28;20391;-39
2023/05/03 05:49:11;;;;;;;;;;;;;;;10.39;100.00;100152.06;5020180;28;20504;-39
2023/05/03 05:51:36;;;;;;;;;;;;;;;11.59;100.00;100122.72;5019923;28;19983;-39
2023/05/03 05:54:02;;;;;;;;;;;;;;;11.15;100.00;100103.69;5023042;28;19995;-39
2023/05/03 05:56:27;;;;;;;;;;;;;;;11.57;100.00;100105.56;5021422;28;19928;-39
2023/05/03 05:58:52;;;;;;;;;;;;;;;11.23;100.00;100109.59;5026471;28;19921;-39
2023/05/03 06:01:18;;;;;;;;;;;;;;;10.80;100.00;100094.81;5018620;28;19928;-39
2023/05/03 06:03:43;;;;;;;;;;;;;;;10.95;100.00;100116.03;5018234;28;21051;-39
2023/05/03 06:06:08;;;;;;;;;;;;;;;10.59;100.00;100126.91;5022481;28;19971;-39
2023/05/03 06:08:33;;;;;;;;;;;;;;;11.15;100.00;100124.31;5022202;28;19928;-39
2023/05/03 06:10:58;;;;;;;;;;;;;;;11.51;100.00;100119.41;5020624;28;19992;-39
2023/05/03 06:13:24;;;;;;;;;;;;;;;11.89;100.00;100092.94;5024935;28;19917;-39
2023/05/03 06:15:49;;;;;;;;;;;;;;;11.00;100.00;100109.13;5024754;28;19928;-39
2023/05/03 06:18:15;;;;;;;;;;;;;;;11.28;100.00;100089.72;5021910;28;20438;-44
2023/05/03 06:20:40;;;;;;;;;;;;;;;12.43;100.00;100091.81;5028607;28;19921;-39
2023/05/03 06:23:05;;;;;;;;;;;;;;;11.50;100.00;100084.19;5023756;28;20039;-39
2023/05/03 06:25:31;;;;;;;;;;;;;;;11.51;100.00;100091.88;5027448;28;19924;-39
2023/05/03 06:27:56;;;;;;;;;;;;;;;11.75;100.00;100083.75;5028821;28;19917;-39
2023/05/03 06:30:22;;;;;;;;;;;;;;;11.96;100.00;100095.41;5022971;28;19943;-39
2023/05/03 06:32:48;;;;;;;;;;;;;;;10.41;100.00;100115.13;5024957;28;19916;-39
2023/05/03 06:35:13;;;;;;;;;;;;;;;12.37;100.00;100099.69;5023176;28;20317;-39
2023/05/03 06:37:38;;;;;;;;;;;;;;;11.61;100.00;100087.44;5022959;28;19921;-39
2023/05/03 06:40:05;;;;;;;;;;;;;;;11.67;100.00;100071.81;5021762;28;19921;-39
2023/05/03 06:42:30;;;;;;;;;;;;;;;13.30;100.00;100067.38;5017371;28;19932;-39
2023/05/03 06:44:55;;;;;;;;;;;;;;;14.61;100.00;100013.47;5022563;28;20655;-39
2023/05/03 06:47:21;;;;;;;;;;;;;;;13.10;100.00;100029.88;5019273;28;19928;-39
2023/05/03 06:49:46;;;;;;;;;;;;;;;13.45;100.00;100016.94;5023539;28;19932;-39
2023/05/03 06:52:11;;;;;;;;;;;;;;;12.45;100.00;100061.63;5022572;28;19917;-39
2023/05/03 06:54:37;;;;;;;;;;;;;;;11.03;100.00;100091.84;5019193;28;19917;-39
2023/05/03 06:57:03;;;;;;;;;;;;;;;11.33;100.00;100083.63;5021248;28;19920;-39
2023/05/03 06:59:28;;;;;;;;;;;;;;;12.86;100.00;100058.94;5028656;28;19948;-39
2023/05/03 07:01:54;;;;;;;;;;;;;;;13.00;100.00;100022.38;5024827;28;20482;-39
2023/05/03 07:04:19;;;;;;;;;;;;;;;13.50;100.00;100022.81;5017336;28;20397;-39
2023/05/03 07:06:44;;;;;;;;;;;;;;;13.13;100.00;100029.78;5018870;28;20519;-39
2023/05/03 07:09:09;;;;;;;;;;;;;;;13.30;100.00;100029.41;5019892;28;19917;-39
2023/05/03 07:11:38;;;;;;;;;;;;;;;11.88;100.00;100031.00;5023973;28;19928;-39
2023/05/03 07:14:03;;;;;;;;;;;;;;;12.96;100.00;100038.00;5020369;28;20444;-39
2023/05/03 07:16:28;;;;;;;;;;;;;;;13.12;100.00;100028.13;5016428;28;20027;-39
2023/05/03 07:18:53;;;;;;;;;;;;;;;14.49;100.00;99997.47;5016435;28;19921;-39
2023/05/03 07:21:19;;;;;;;;;;;;;;;12.23;100.00;100030.25;5021003;28;19917;-39
2023/05/03 07:23:44;;;;;;;;;;;;;;;13.23;100.00;100019.22;5018226;28;20528;-39
2023/05/03 07:26:09;;;;;;;;;;;;;;;13.15;100.00;100045.28;5024210;28;20103;-39
2023/05/03 07:28:34;;;;;;;;;;;;;;;14.58;100.00;100017.94;5019607;28;20456;-39
2023/05/03 07:31:00;;;;;;;;;;;;;;;13.70;100.00;100030.03;5014989;28;19928;-39
2023/05/03 07:33:25;;;;;;;;;;;;;;;14.48;100.00;100014.72;5016423;28;19994;-39
2023/05/03 07:35:51;;;;;;;;;;;;;;;12.89;100.00;100059.72;5019155;28;19925;-39
2023/05/03 07:38:16;;;;;;;;;;;;;;;13.19;100.00;100054.66;5022058;28;20011;-39
2023/05/03 07:40:41;;;;;;;;;;;;;;;15.27;100.00;99994.84;5013067;28;19920;-39
2023/05/03 07:43:08;;;;;;;;;;;;;;;14.40;100.00;99985.63;5015869;28;19921;-39
2023/05/03 07:45:34;;;;;;;;;;;;;;;13.52;100.00;100018.44;5015053;28;19917;-39
2023/05/03 07:47:59;;;;;;;;;;;;;;;13.91;100.00;100028.56;5015746;28;19941;-43
2023/05/03 07:50:25;;;;;;;;;;;;;;;14.25;100.00;99996.47;5017332;28;19925;-39
2023/05/03 07:52:50;;;;;;;;;;;;;;;13.19;100.00;100033.97;5024428;28;19971;-39
2023/05/03 07:55:19;;;;;;;;;;;;;;;13.58;100.00;100039.00;5024027;28;19944;-39
2023/05/03 07:57:44;;;;;;;;;;;;;;;14.82;100.00;100008.47;5021832;28;19924;-40
2023/05/03 08:00:11;;;;;;;;;;;;;;;14.77;100.00;99984.47;5014912;28;19921;-41
2023/05/03 08:02:36;;;;;;;;;;;;;;;14.97;100.00;99979.44;5020660;28;19984;-39
2023/05/03 08:05:03;;;;;;;;;;;;;;;14.14;100.00;99979.53;5006710;28;20547;-39
2023/05/03 08:07:29;;;;;;;;;;;;;;;13.94;100.00;100012.97;5014040;28;19971;-39
2023/05/03 08:09:57;;;;;;;;;;;;;;;13.98;100.00;100009.34;5013825;28;19925;-39
2023/05/03 08:12:22;;;;;;;;;;;;;;;15.11;100.00;99952.19;5013663;28;19948;-39
2023/05/03 08:14:47;;;;;;;;;;;;;;;13.08;100.00;100004.94;5012386;28;19917;-39
2023/05/03 08:17:13;;;;;;;;;;;;;;;12.68;100.00;100000.78;5016344;28;20007;-39
2023/05/03 08:19:38;;;;;;;;;;;;;;;15.03;100.00;99955.88;5013968;28;19963;-39
2023/05/03 08:22:04;;;;;;;;;;;;;;;15.78;100.00;99928.97;5016484;28;19932;-39
2023/05/03 08:24:29;;;;;;;;;;;;;;;12.77;100.00;99979.88;5013657;28;20392;-39
2023/05/03 08:26:55;;;;;;;;;;;;;;;12.96;100.00;99996.63;5015287;28;19921;-39
2023/05/03 08:29:20;;;;;;;;;;;;;;;13.02;100.00;99971.50;5013061;28;19975;-38
2023/05/03 08:31:45;;;;;;;;;;;;;;;14.18;100.00;99934.47;5013728;28;19921;-38
2023/05/03 08:34:10;;;;;;;;;;;;;;;15.45;100.00;99895.53;5013909;28;19917;-38
2023/05/03 08:36:37;;;;;;;;;;;;;;;14.92;100.00;99916.50;5015581;28;19921;-38
2023/05/03 08:39:05;;;;;;;;;;;;;;;14.88;99.95;99904.53;5014642;28;20299;-38
2023/05/03 08:41:30;;;;;;;;;;;;;;;15.12;100.00;99907.16;5014150;28;19917;-38
2023/05/03 08:43:57;;;;;;;;;;;;;;;15.01;100.00;99929.16;5012573;28;20234;-38
2023/05/03 08:46:24;;;;;;;;;;;;;;;14.91;100.00;99904.44;5016609;28;19932;-38
2023/05/03 08:48:51;;;;;;;;;;;;;;;14.21;97.12;99902.47;5015022;28;20199;-39
2023/05/03 08:51:17;;;;;;;;;;;;;;;14.25;100.00;99926.50;5015353;28;20385;-38
2023/05/03 08:53:42;;;;;;;;;;;;;;;14.53;97.02;99900.53;5015644;28;19932;-38
2023/05/03 08:56:07;;;;;;;;;;;;;;;14.43;98.96;99918.97;5014658;28;20012;-38
2023/05/03 08:58:34;;;;;;;;;;;;;;;15.36;98.41;99888.09;5015064;28;19917;-39
2023/05/03 09:01:05;;;;;;;;;;;;;;;16.67;98.19;99877.69;5016997;28;19925;-39
2023/05/03 09:03:31;;;;;;;;;;;;;;;14.01;97.67;99923.81;5013831;28;20356;-39
2023/05/03 09:06:00;;;;;;;;;;;;;;;13.72;100.00;99951.44;5016662;28;19921;-39
2023/05/03 09:08:26;;;;;;;;;;;;;;;13.60;100.00;99998.41;5017919;28;19921;-38
2023/05/03 09:10:53;;;;;;;;;;;;;;;14.11;100.00;99945.94;5017864;28;20692;-38
2023/05/03 09:13:18;;;;;;;;;;;;;;;14.84;100.00;99928.88;5022504;28;20560;-38
2023/05/03 09:15:51;;;;;;;;;;;;;;;15.59;100.00;99912.34;5016343;28;19921;-39
2023/05/03 09:18:17;;;;;;;;;;;;;;;17.18;100.00;99898.94;5018564;28;20013;-38
2023/05/03 09:20:50;;;;;;;;;;;;;;;16.44;94.49;99876.06;5020015;28;19928;-39
2023/05/03 09:23:15;;;;;;;;;;;;;;;14.85;93.04;99889.94;5017620;28;19925;-39
2023/05/03 09:25:40;;;;;;;;;;;;;;;14.99;100.00;99956.91;5022040;28;20397;-39
2023/05/03 09:28:06;;;;;;;;;;;;;;;16.59;99.86;99911.81;5016643;28;19917;-39
2023/05/03 09:30:31;;;;;;;;;;;;;;;14.24;100.00;99954.19;5018495;28;19963;-39
2023/05/03 09:32:56;;;;;;;;;;;;;;;16.08;100.00;99920.88;5019062;28;19912;-39
2023/05/03 09:35:22;;;;;;;;;;;;;;;16.33;100.00;99925.91;5019101;28;19913;-39
2023/05/03 09:37:47;;;;;;;;;;;;;;;14.18;97.46;99929.28;5018771;28;19996;-39
2023/05/03 09:40:16;;;;;;;;;;;;;;;15.93;97.05;99911.91;5020092;28;19924;-39
2023/05/03 09:42:54;;;;;;;;;;;;;;;16.98;95.06;99887.63;5025207;28;19929;-39
2023/05/03 09:45:23;;;;;;;;;;;;;;;18.67;87.68;99827.44;5026584;28;19924;-39
2023/05/03 09:47:48;;;;;;;;;;;;;;;17.04;91.80;99884.78;5020650;28;19956;-39
2023/05/03 09:50:13;;;;;;;;;;;;;;;16.24;97.74;99924.53;5017902;28;19964;-39
2023/05/03 09:52:39;;;;;;;;;;;;;;;16.70;98.30;99920.03;5020900;28;19917;-39
2023/05/03 09:55:04;;;;;;;;;;;;;;;17.80;92.83;99871.72;5017577;28;19952;-39
2023/05/03 09:57:29;;;;;;;;;;;;;;;18.11;94.36;99885.91;5019654;28;19982;-39
2023/05/03 09:59:55;;;;;;;;;;;;;;;19.15;89.69;99827.53;5017788;28;19921;-39
2023/05/03 10:02:21;;;;;;;;;;;;;;;15.97;91.23;99897.06;5020987;28;19964;-39
2023/05/03 10:04:48;;;;;;;;;;;;;;;17.04;97.40;99918.59;5022619;28;19921;-39
2023/05/03 10:07:13;;;;;;;;;;;;;;;18.64;94.84;99863.28;5018228;28;19956;-39
2023/05/03 10:09:40;;;;;;;;;;;;;;;17.65;92.38;99875.06;5020572;28;19952;-39
2023/05/03 10:12:06;;;;;;;;;;;;;;;19.40;87.96;99813.97;5026719;28;19920;-39
2023/05/03 10:14:32;;;;;;;;;;;;;;;16.21;93.03;99908.22;5026131;28;19916;-39
2023/05/03 10:16:58;;;;;;;;;;;;;;;18.60;85.77;99800.81;5015408;28;19917;-39
2023/05/03 10:19:26;;;;;;;;;;;;;;;17.05;88.32;99854.38;5025287;28;19917;-39
2023/05/03 10:22:10;;;;;;;;;;;;;;;16.97;95.58;99911.13;5020162;28;19925;-39
2023/05/03 10:24:36;;;;;;;;;;;;;;;17.72;92.67;99858.22;5026720;28;19927;-39
2023/05/03 10:27:02;;;;;;;;;;;;;;;17.07;95.16;99902.84;5025491;28;20901;-39
2023/05/03 10:29:47;;;;;;;;;;;;;;;17.11;96.02;99907.00;5024228;28;19917;-39
2023/05/03 10:32:31;;;;;;;;;;;;;;;16.49;89.21;99855.94;5026523;28;20030;-39
2023/05/03 10:35:00;;;;;;;;;;;;;;;17.16;95.55;99901.59;5021613;28;19917;-39
2023/05/03 10:37:26;;;;;;;;;;;;;;;19.10;88.28;99809.50;5022176;28;19944;-39
2023/05/03 10:39:51;;;;;;;;;;;;;;;18.75;89.36;99846.16;5017780;28;20512;-40
2023/05/03 10:42:17;;;;;;;;;;;;;;;18.38;84.20;99805.44;5019780;28;19922;-40
2023/05/03 10:44:50;;;;;;;;;;;;;;;17.71;88.26;99856.53;5015629;28;20020;-39
2023/05/03 10:47:15;;;;;;;;;;;;;;;16.97;90.24;99880.75;5018268;28;20696;-40
2023/05/03 10:49:41;;;;;;;;;;;;;;;17.68;87.70;99835.84;5023086;28;19925;-40
2023/05/03 10:52:25;;;;;;;;;;;;;;;19.87;84.47;99786.97;5021231;28;20906;-40
2023/05/03 10:54:51;;;;;;;;;;;;;;;18.99;77.60;99759.66;5018310;28;19913;-40
2023/05/03 10:57:16;;;;;;;;;;;;;;;18.95;80.65;99781.63;5020336;28;19921;-39
2023/05/03 10:59:45;;;;;;;;;;;;;;;17.97;87.46;99844.88;5013884;28;19933;-39
2023/05/03 11:02:10;;;;;;;;;;;;;;;19.11;92.36;99855.59;5018376;28;19950;-39
2023/05/03 11:04:37;;;;;;;;;;;;;;;16.46;84.81;99836.09;5019847;28;20379;-39
2023/05/03 11:07:03;;;;;;;;;;;;;;;18.86;88.55;99831.72;5023783;28;20473;-39
2023/05/03 11:09:29;;;;;;;;;;;;;;;18.10;90.73;99858.16;5018447;28;19921;-39
2023/05/03 11:11:54;;;;;;;;;;;;;;;17.05;90.15;99860.41;5019601;28;19947;-39
2023/05/03 11:14:20;;;;;;;;;;;;;;;18.20;92.78;99848.97;5016159;28;20019;-40
2023/05/03 11:16:49;;;;;;;;;;;;;;;16.99;90.30;99847.72;5017042;28;20027;-40
2023/05/03 11:19:15;;;;;;;;;;;;;;;18.97;85.72;99778.00;5010932;28;20012;-40
2023/05/03 11:21:41;;;;;;;;;;;;;;;19.47;88.29;99812.72;5016136;28;20000;-39
2023/05/03 11:24:06;;;;;;;;;;;;;;;20.47;88.51;99794.72;5015103;28;19929;-39
2023/05/03 11:26:35;;;;;;;;;;;;;;;18.10;88.04;99821.66;5015963;28;19917;-40
2023/05/03 11:29:00;;;;;;;;;;;;;;;18.71;88.36;99808.09;5012250;28;20659;-40
2023/05/03 11:31:25;;;;;;;;;;;;;;;16.86;84.72;99791.94;5018748;28;19931;-40
2023/05/03 11:33:50;;;;;;;;;;;;;;;16.70;88.17;99820.34;5014815;28;19931;-40
2023/05/03 11:36:16;;;;;;;;;;;;;;;18.61;90.53;99817.31;5017524;28;19925;-39
2023/05/03 11:38:41;;;;;;;;;;;;;;;17.51;88.20;99797.56;5019124;28;19983;-39
2023/05/03 11:41:13;;;;;;;;;;;;;;;18.90;89.60;99792.31;5017315;28;19927;-39
2023/05/03 11:43:45;;;;;;;;;;;;;;;19.28;85.72;99752.00;5015319;28;19936;-39
2023/05/03 11:46:12;;;;;;;;;;;;;;;18.95;81.27;99721.59;5018052;28;19925;-39
2023/05/03 11:48:37;;;;;;;;;;;;;;;20.87;80.50;99707.72;5018968;28;19967;-39
2023/05/03 11:51:06;;;;;;;;;;;;;;;20.96;82.68;99735.94;5009865;28;20736;-40
2023/05/03 11:53:32;;;;;;;;;;;;;;;21.50;79.65;99722.00;5019137;28;19928;-39
2023/05/03 11:55:57;;;;;;;;;;;;;;;20.59;77.72;99734.75;5015909;28;19925;-39
2023/05/03 11:58:26;;;;;;;;;;;;;;;19.43;78.61;99746.75;5015645;28;19971;-39
2023/05/03 12:00:52;;;;;;;;;;;;;;;19.55;81.63;99762.66;5013964;28;19928;-39
2023/05/03 12:03:25;;;;;;;;;;;;;;;17.55;85.74;99810.38;5014511;28;20394;-39
2023/05/03 12:05:51;;;;;;;;;;;;;;;19.14;87.44;99784.94;5011011;28;19921;-39
2023/05/03 12:08:18;;;;;;;;;;;;;;;18.55;80.35;99734.16;5015044;28;20487;-39
2023/05/03 12:10:44;;;;;;;;;;;;;;;18.94;81.05;99748.63;5014363;28;19967;-39
2023/05/03 12:13:09;;;;;;;;;;;;;;;19.17;85.76;99779.53;5016259;28;19917;-39
2023/05/03 12:15:36;;;;;;;;;;;;;;;20.95;77.42;99692.34;5015840;28;20415;-40
2023/05/03 12:18:04;;;;;;;;;;;;;;;19.54;75.08;99714.75;5014307;28;19920;-39
2023/05/03 12:20:31;;;;;;;;;;;;;;;19.70;76.01;99714.75;5014875;28;20382;-39
2023/05/03 12:22:58;;;;;;;;;;;;;;;20.98;79.90;99733.19;5015931;28;19964;-39
2023/05/03 12:25:24;;;;;;;;;;;;;;;20.27;76.89;99709.63;5012430;28;19917;-39
2023/05/03 12:27:50;;;;;;;;;;;;;;;20.27;78.47;99727.06;5010680;28;19917;-39
2023/05/03 12:30:16;;;;;;;;;;;;;;;21.12;78.83;99714.84;5013032;28;19948;-39